createdAt,value
2023-03-15T00:04:00.294Z,43.10
2023-03-15T00:09:04.628Z,43.34
2023-03-15T00:14:09.497Z,42.90
2023-03-15T00:19:13.224Z,44.07
2023-03-15T00:24:16.617Z,42.99
2023-03-15T00:29:21.383Z,43.03
2023-03-15T00:34:26.456Z,43.40
2023-03-15T00:39:29.898Z,43.41
2023-03-15T00:44:34.720Z,45.09
2023-03-15T00:49:38.710Z,44.65
2023-03-15T00:54:43.545Z,44.64
2023-03-15T00:59:48.912Z,43.49
2023-03-15T01:04:52.363Z,43.75
2023-03-15T01:09:55.773Z,42.77
2023-03-15T01:15:01.715Z,42.38
2023-03-15T01:20:06.481Z,41.57
2023-03-15T01:25:11.010Z,42.38
2023-03-15T01:30:16.025Z,42.65
2023-03-15T01:35:19.574Z,41.81
2023-03-15T01:40:23.055Z,42.09
2023-03-15T01:46:07.217Z,41.80
2023-03-15T01:51:21.598Z,40.99
2023-03-15T01:56:25.407Z,40.97
2023-03-15T02:01:31.094Z,41.66
2023-03-15T02:06:35.335Z,41.45
2023-03-15T02:11:38.901Z,40.31
2023-03-15T02:16:44.251Z,40.26
2023-03-15T02:21:57.903Z,40.94
2023-03-15T02:27:01.415Z,40.55
2023-03-15T02:32:06.433Z,40.79
2023-03-15T02:37:10.090Z,41.80
2023-03-15T02:42:13.579Z,42.23
2023-03-15T02:47:22.166Z,40.65
2023-03-15T02:52:26.220Z,41.41
2023-03-15T02:57:30.062Z,40.63
2023-03-15T03:02:36.009Z,41.42
2023-03-15T03:07:39.686Z,43.27
2023-03-15T03:12:44.954Z,41.65
2023-03-15T03:17:50.012Z,42.60
2023-03-15T03:22:55.810Z,43.00
2023-03-15T03:27:59.856Z,44.09
2023-03-15T03:33:07.025Z,45.97
2023-03-15T03:38:10.901Z,44.93
2023-03-15T03:43:17.109Z,46.84
2023-03-15T03:48:22.582Z,46.96
2023-03-15T03:53:27.212Z,46.76
2023-03-15T03:58:31.730Z,46.66
2023-03-15T04:03:41.603Z,47.39
2023-03-15T04:08:51.698Z,45.84
2023-03-15T04:14:01.993Z,45.90
2023-03-15T04:19:07.875Z,46.43
2023-03-15T04:24:12.635Z,46.04
2023-03-15T04:29:29.779Z,47.17
2023-03-15T04:34:51.502Z,46.53
2023-03-15T04:40:07.039Z,46.23
2023-03-15T04:45:25.594Z,45.44
2023-03-15T04:50:59.827Z,46.61
2023-03-15T04:56:29.391Z,47.36
2023-03-15T05:01:48.207Z,49.24
2023-03-15T05:07:19.044Z,47.53
2023-03-15T05:12:57.014Z,47.32
2023-03-15T05:18:21.818Z,47.19
2023-03-15T05:23:46.852Z,47.05
2023-03-15T05:29:10.582Z,46.58
2023-03-15T05:34:32.252Z,47.26
2023-03-15T05:39:50.920Z,47.64
2023-03-15T05:45:14.300Z,46.30
2023-03-15T05:50:39.958Z,47.76
2023-03-15T05:56:04.081Z,45.95
2023-03-15T06:01:26.714Z,46.18
2023-03-15T06:06:50.753Z,47.52
2023-03-15T06:11:58.926Z,47.97
2023-03-15T06:17:02.496Z,48.97
2023-03-15T06:22:07.600Z,47.67
2023-03-15T06:27:22.157Z,46.55
2023-03-15T06:32:26.757Z,45.70
2023-03-15T06:37:35.450Z,46.52
2023-03-15T06:42:41.644Z,47.13
2023-03-15T06:47:47.533Z,46.42
2023-03-15T06:52:52.425Z,46.51
2023-03-15T06:57:57.833Z,46.00
2023-03-15T07:03:01.339Z,48.00
2023-03-15T07:08:05.077Z,46.01
2023-03-15T07:13:10.136Z,47.29
2023-03-15T07:18:13.553Z,44.67
2023-03-15T07:23:16.926Z,45.25
2023-03-15T07:28:21.852Z,45.11
2023-03-15T07:33:26.738Z,45.34
2023-03-15T07:38:30.282Z,46.22
2023-03-15T07:43:35.559Z,44.36
2023-03-15T07:48:47.934Z,46.44
2023-03-15T07:53:51.507Z,44.85
2023-03-15T07:58:56.480Z,45.04
2023-03-15T08:03:59.983Z,44.00
2023-03-15T08:09:05.747Z,43.61
2023-03-15T08:14:10.553Z,41.43
2023-03-15T08:19:13.914Z,40.86
2023-03-15T08:24:17.311Z,42.90
2023-03-15T08:29:22.118Z,42.59
2023-03-15T08:34:25.663Z,41.09
2023-03-15T08:39:29.084Z,41.35
2023-03-15T08:44:36.139Z,40.73
2023-03-15T08:49:39.724Z,39.98
2023-03-15T08:54:43.397Z,39.22
2023-03-15T08:59:48.172Z,41.83
2023-03-15T09:04:53.513Z,39.12
2023-03-15T09:09:57.016Z,38.56
2023-03-15T09:15:01.734Z,40.25
2023-03-15T09:20:08.805Z,39.54
2023-03-15T09:25:12.173Z,38.17
2023-03-15T09:30:17.709Z,40.19
2023-03-15T09:35:21.698Z,39.27
2023-03-15T09:40:26.792Z,37.82
2023-03-15T09:45:43.214Z,38.07
2023-03-15T09:50:48.357Z,38.92
2023-03-15T09:55:52.528Z,41.04
2023-03-15T10:01:00.688Z,38.91
2023-03-15T10:06:08.645Z,37.89
2023-03-15T10:11:16.416Z,37.29
2023-03-15T10:16:28.388Z,35.32
2023-03-15T10:21:38.993Z,33.75
2023-03-15T10:31:49.901Z,33.49
2023-03-15T10:36:55.404Z,33.22
2023-03-15T10:41:59.012Z,33.82
2023-03-15T10:47:22.197Z,31.75
2023-03-15T10:52:35.196Z,31.86
2023-03-15T10:57:40.764Z,31.57
2023-03-15T11:02:51.976Z,31.10
2023-03-15T11:07:57.306Z,30.34
2023-03-15T11:13:10.762Z,27.76
2023-03-15T11:18:20.423Z,27.62
2023-03-15T11:23:27.055Z,29.02
2023-03-15T11:28:32.453Z,28.13
2023-03-15T11:33:44.864Z,28.73
2023-03-15T11:38:48.358Z,29.90
2023-03-15T11:43:57.565Z,31.37
2023-03-15T11:49:06.760Z,30.19
2023-03-15T11:54:14.409Z,29.21
2023-03-15T11:59:19.675Z,29.27
2023-03-15T12:04:46.291Z,28.16
2023-03-15T12:09:52.184Z,28.42
2023-03-15T12:15:03.680Z,28.37
2023-03-15T12:20:18.131Z,27.14
2023-03-15T12:25:24.524Z,26.63
2023-03-15T12:30:33.696Z,26.66
2023-03-15T12:35:41.625Z,26.28
2023-03-15T12:40:54.838Z,33.06
2023-03-15T12:45:58.545Z,39.06
2023-03-15T12:51:18.569Z,43.24
2023-03-15T12:56:34.509Z,43.18
2023-03-15T13:01:37.971Z,43.61
2023-03-15T13:06:53.455Z,44.22
2023-03-15T13:12:00.987Z,47.90
2023-03-15T13:17:07.421Z,49.50
2023-03-15T13:22:18.100Z,48.12
2023-03-15T13:27:34.440Z,42.87
2023-03-15T13:32:37.978Z,42.24
2023-03-15T13:37:45.055Z,42.08
2023-03-15T13:42:48.433Z,42.89
2023-03-15T13:47:51.824Z,40.07
2023-03-15T13:52:56.986Z,39.24
2023-03-15T13:58:05.513Z,42.81
2023-03-15T14:03:14.151Z,40.74
2023-03-15T14:08:23.206Z,36.83
2023-03-15T14:13:28.998Z,37.34
2023-03-15T14:18:36.859Z,35.31
2023-03-15T14:23:43.687Z,37.75
2023-03-15T14:28:52.915Z,34.98
2023-03-15T14:34:00.684Z,36.96
2023-03-15T14:39:06.085Z,33.61
2023-03-15T14:44:09.547Z,34.61
2023-03-15T14:49:14.391Z,37.10
2023-03-15T14:54:19.390Z,35.89
2023-03-15T14:59:23.240Z,35.57
2023-03-15T15:04:31.299Z,36.79
2023-03-15T15:09:38.457Z,34.98
2023-03-15T15:14:43.634Z,34.62
2023-03-15T15:19:47.220Z,33.89
2023-03-15T15:24:51.998Z,32.12
2023-03-15T15:29:55.376Z,32.33
2023-03-15T15:34:59.130Z,32.29
2023-03-15T15:40:05.168Z,32.97
2023-03-15T15:45:11.457Z,32.86
2023-03-15T15:50:16.600Z,31.86
2023-03-15T15:55:24.460Z,30.78
2023-03-15T16:00:29.349Z,34.05
2023-03-15T16:05:33.575Z,31.53
2023-03-15T16:10:38.377Z,31.95
2023-03-15T16:15:42.020Z,30.21
2023-03-15T16:20:45.437Z,31.43
2023-03-15T16:25:51.860Z,30.46
2023-03-15T16:30:55.265Z,31.25
2023-03-15T16:35:59.129Z,31.93
2023-03-15T16:41:03.847Z,31.01
2023-03-15T16:46:13.546Z,31.82
2023-03-15T16:51:17.498Z,32.13
2023-03-15T16:56:22.302Z,32.38
2023-03-15T17:01:26.605Z,32.62
2023-03-15T17:06:31.332Z,32.97
2023-03-15T17:11:38.670Z,34.42
2023-03-15T17:16:42.345Z,34.36
2023-03-15T17:21:45.769Z,33.85
2023-03-15T17:26:50.580Z,33.47
2023-03-15T17:31:54.214Z,33.15
2023-03-15T17:36:57.688Z,33.59
2023-03-15T17:42:02.738Z,33.31
2023-03-15T17:47:11.265Z,33.19
2023-03-15T17:52:17.202Z,33.55
2023-03-15T17:57:21.997Z,34.45
2023-03-15T18:02:25.569Z,34.47
2023-03-15T18:07:30.738Z,35.09
2023-03-15T18:12:35.608Z,35.68
2023-03-15T18:17:39.166Z,36.28
2023-03-15T18:22:42.968Z,36.84
2023-03-15T18:27:48.252Z,36.93
2023-03-15T18:32:53.419Z,36.96
2023-03-15T18:37:57.475Z,37.42
2023-03-15T18:43:04.061Z,37.50
2023-03-15T18:48:08.093Z,37.76
2023-03-15T18:53:12.078Z,37.77
2023-03-15T18:58:16.879Z,38.00
2023-03-15T19:03:20.579Z,38.55
2023-03-15T19:08:23.977Z,38.58
2023-03-15T19:13:28.925Z,39.21
2023-03-15T19:18:33.789Z,39.09
2023-03-15T19:23:37.226Z,39.12
2023-03-15T19:28:42.059Z,38.85
2023-03-15T19:33:45.492Z,38.33
2023-03-15T19:38:48.871Z,38.87
2023-03-15T19:43:53.660Z,39.07
2023-03-15T19:48:57.075Z,39.27
2023-03-15T19:54:00.627Z,39.24
2023-03-15T19:59:05.388Z,39.18
2023-03-15T20:04:09.031Z,39.16
2023-03-15T20:09:12.652Z,39.60
2023-03-15T20:14:18.635Z,40.09
2023-03-15T20:19:22.041Z,39.85
2023-03-15T20:24:25.605Z,39.15
2023-03-15T20:29:31.513Z,39.07
2023-03-15T20:34:34.925Z,39.68
2023-03-15T20:39:38.777Z,39.25
2023-03-15T20:44:44.325Z,39.47
2023-03-15T20:49:47.776Z,40.06
2023-03-15T20:54:51.150Z,40.20
2023-03-15T20:59:55.920Z,40.23
2023-03-15T21:04:59.403Z,40.13
2023-03-15T21:10:03.028Z,41.29
2023-03-15T21:15:08.778Z,41.68
2023-03-15T21:20:15.342Z,41.41
2023-03-15T21:25:19.119Z,41.23
2023-03-15T21:30:24.184Z,41.19
2023-03-15T21:35:27.898Z,41.81
2023-03-15T21:40:31.256Z,41.63
2023-03-15T21:45:36.237Z,42.14
2023-03-15T21:50:39.783Z,42.03
2023-03-15T21:55:46.166Z,41.59
2023-03-15T22:00:51.099Z,41.69
2023-03-15T22:05:54.564Z,41.81
2023-03-15T22:10:59.512Z,42.12
2023-03-15T22:16:05.057Z,42.15
2023-03-15T22:21:08.472Z,41.51
2023-03-15T22:26:12.013Z,40.92
2023-03-15T22:31:16.912Z,40.57
2023-03-15T22:36:20.461Z,41.62
2023-03-15T22:41:24.332Z,41.46
2023-03-15T22:46:34.805Z,42.28
2023-03-15T22:51:40.351Z,42.07
2023-03-15T22:56:43.932Z,42.26
2023-03-15T23:01:48.938Z,42.24
2023-03-15T23:06:53.222Z,42.30
2023-03-15T23:11:56.615Z,41.73
2023-03-15T23:17:03.233Z,42.42
2023-03-15T23:22:06.988Z,42.57
2023-03-15T23:27:11.550Z,42.45
2023-03-15T23:32:18.231Z,42.37
2023-03-15T23:37:23.369Z,41.77
2023-03-15T23:42:27.482Z,41.69
2023-03-15T23:47:32.664Z,41.61
2023-03-15T23:52:36.263Z,41.61
2023-03-15T23:57:39.694Z,41.88
